sensor_id;sensor_type;location;lat;lon;timestamp;P1;durP1;ratioP1;P2;durP2;ratioP2
72891;SDS011;61032;50.782;6.818;2022-12-10T00:00:33;23.80;;;14.13;;
72891;SDS011;61032;50.782;6.818;2022-12-10T00:01:34;29.80;;;14.23;;
72891;SDS011;61032;50.782;6.818;2022-12-10T00:02:34;25.80;;;13.90;;
72891;SDS011;61032;50.782;6.818;2022-12-10T00:03:35;24.52;;;13.23;;
72891;SDS011;61032;50.782;6.818;2022-12-10T00:04:36;26.17;;;13.45;;
72891;SDS011;61032;50.782;6.818;2022-12-10T00:05:36;23.55;;;13.98;;
72891;SDS011;61032;50.782;6.818;2022-12-10T00:06:37;24.30;;;13.38;;
72891;SDS011;61032;50.782;6.818;2022-12-10T00:07:39;24.85;;;12.98;;
72891;SDS011;61032;50.782;6.818;2022-12-10T00:08:39;21.75;;;12.35;;
72891;SDS011;61032;50.782;6.818;2022-12-10T00:09:40;25.17;;;13.77;;
72891;SDS011;61032;50.782;6.818;2022-12-10T00:10:40;21.42;;;12.43;;
72891;SDS011;61032;50.782;6.818;2022-12-10T00:11:40;25.70;;;12.65;;
72891;SDS011;61032;50.782;6.818;2022-12-10T00:12:41;19.63;;;12.15;;
72891;SDS011;61032;50.782;6.818;2022-12-10T00:13:42;21.80;;;12.60;;
72891;SDS011;61032;50.782;6.818;2022-12-10T00:14:43;23.10;;;12.05;;
72891;SDS011;61032;50.782;6.818;2022-12-10T00:15:43;24.23;;;11.48;;
72891;SDS011;61032;50.782;6.818;2022-12-10T00:16:43;19.70;;;11.57;;
72891;SDS011;61032;50.782;6.818;2022-12-10T00:17:44;23.92;;;12.55;;
72891;SDS011;61032;50.782;6.818;2022-12-10T00:18:44;26.60;;;12.98;;
72891;SDS011;61032;50.782;6.818;2022-12-10T00:19:45;24.42;;;12.40;;
72891;SDS011;61032;50.782;6.818;2022-12-10T00:20:45;21.38;;;12.50;;
72891;SDS011;61032;50.782;6.818;2022-12-10T00:21:45;25.20;;;12.80;;
72891;SDS011;61032;50.782;6.818;2022-12-10T00:22:46;24.05;;;12.57;;
72891;SDS011;61032;50.782;6.818;2022-12-10T00:23:46;24.77;;;13.18;;
72891;SDS011;61032;50.782;6.818;2022-12-10T00:24:46;20.27;;;12.13;;
72891;SDS011;61032;50.782;6.818;2022-12-10T00:25:47;23.40;;;12.65;;
72891;SDS011;61032;50.782;6.818;2022-12-10T00:26:47;23.00;;;12.40;;
72891;SDS011;61032;50.782;6.818;2022-12-10T00:27:47;24.95;;;13.02;;
72891;SDS011;61032;50.782;6.818;2022-12-10T00:28:48;25.50;;;14.10;;
72891;SDS011;61032;50.782;6.818;2022-12-10T00:29:50;25.77;;;12.63;;
72891;SDS011;61032;50.782;6.818;2022-12-10T00:30:50;27.40;;;13.10;;
72891;SDS011;61032;50.782;6.818;2022-12-10T00:31:50;24.50;;;13.38;;
72891;SDS011;61032;50.782;6.818;2022-12-10T00:32:51;22.02;;;11.90;;
72891;SDS011;61032;50.782;6.818;2022-12-10T00:33:52;24.40;;;14.20;;
72891;SDS011;61032;50.782;6.818;2022-12-10T00:34:54;21.23;;;12.30;;
72891;SDS011;61032;50.782;6.818;2022-12-10T00:35:55;23.05;;;12.63;;
72891;SDS011;61032;50.782;6.818;2022-12-10T00:36:55;19.95;;;12.57;;
72891;SDS011;61032;50.782;6.818;2022-12-10T00:37:55;25.38;;;12.88;;
72891;SDS011;61032;50.782;6.818;2022-12-10T00:38:56;24.25;;;12.23;;
72891;SDS011;61032;50.782;6.818;2022-12-10T00:39:56;24.35;;;14.18;;
72891;SDS011;61032;50.782;6.818;2022-12-10T00:40:57;21.88;;;12.45;;
72891;SDS011;61032;50.782;6.818;2022-12-10T00:41:57;25.88;;;13.68;;
72891;SDS011;61032;50.782;6.818;2022-12-10T00:42:57;27.70;;;12.95;;
72891;SDS011;61032;50.782;6.818;2022-12-10T00:43:58;27.92;;;15.48;;
72891;SDS011;61032;50.782;6.818;2022-12-10T00:44:58;27.42;;;14.73;;
72891;SDS011;61032;50.782;6.818;2022-12-10T00:45:59;26.88;;;13.93;;
72891;SDS011;61032;50.782;6.818;2022-12-10T00:46:59;24.20;;;12.20;;
72891;SDS011;61032;50.782;6.818;2022-12-10T00:47:59;23.15;;;12.35;;
72891;SDS011;61032;50.782;6.818;2022-12-10T00:49:00;20.73;;;12.27;;
72891;SDS011;61032;50.782;6.818;2022-12-10T00:50:00;22.25;;;11.25;;
72891;SDS011;61032;50.782;6.818;2022-12-10T00:51:05;21.92;;;12.27;;
72891;SDS011;61032;50.782;6.818;2022-12-10T00:52:07;22.45;;;12.52;;
72891;SDS011;61032;50.782;6.818;2022-12-10T00:53:07;17.45;;;11.02;;
72891;SDS011;61032;50.782;6.818;2022-12-10T00:54:07;19.05;;;11.23;;
72891;SDS011;61032;50.782;6.818;2022-12-10T00:55:08;24.88;;;12.38;;
72891;SDS011;61032;50.782;6.818;2022-12-10T00:56:09;21.98;;;12.05;;
72891;SDS011;61032;50.782;6.818;2022-12-10T00:57:10;22.13;;;11.95;;
72891;SDS011;61032;50.782;6.818;2022-12-10T00:58:11;20.75;;;11.73;;
72891;SDS011;61032;50.782;6.818;2022-12-10T00:59:11;24.02;;;13.43;;
72891;SDS011;61032;50.782;6.818;2022-12-10T01:00:11;22.42;;;12.15;;
72891;SDS011;61032;50.782;6.818;2022-12-10T01:01:24;25.90;;;13.20;;
72891;SDS011;61032;50.782;6.818;2022-12-10T01:02:26;21.77;;;12.27;;
72891;SDS011;61032;50.782;6.818;2022-12-10T01:03:26;24.35;;;12.20;;
72891;SDS011;61032;50.782;6.818;2022-12-10T01:04:27;21.73;;;12.50;;
72891;SDS011;61032;50.782;6.818;2022-12-10T01:05:27;20.92;;;11.98;;
72891;SDS011;61032;50.782;6.818;2022-12-10T01:06:29;23.58;;;13.85;;
72891;SDS011;61032;50.782;6.818;2022-12-10T01:07:30;22.45;;;12.23;;
72891;SDS011;61032;50.782;6.818;2022-12-10T01:08:30;23.13;;;12.93;;
72891;SDS011;61032;50.782;6.818;2022-12-10T01:09:31;27.40;;;12.68;;
72891;SDS011;61032;50.782;6.818;2022-12-10T01:10:31;26.85;;;12.70;;
72891;SDS011;61032;50.782;6.818;2022-12-10T01:11:33;23.50;;;12.13;;
72891;SDS011;61032;50.782;6.818;2022-12-10T01:12:37;28.70;;;13.68;;
72891;SDS011;61032;50.782;6.818;2022-12-10T01:13:37;23.17;;;12.07;;
72891;SDS011;61032;50.782;6.818;2022-12-10T01:14:38;25.40;;;12.60;;
72891;SDS011;61032;50.782;6.818;2022-12-10T01:15:39;24.40;;;13.77;;
72891;SDS011;61032;50.782;6.818;2022-12-10T01:16:39;23.75;;;13.07;;
72891;SDS011;61032;50.782;6.818;2022-12-10T01:17:40;24.67;;;13.32;;
72891;SDS011;61032;50.782;6.818;2022-12-10T01:18:40;26.55;;;12.55;;
72891;SDS011;61032;50.782;6.818;2022-12-10T01:19:41;22.27;;;12.00;;
72891;SDS011;61032;50.782;6.818;2022-12-10T01:20:41;24.42;;;12.35;;
72891;SDS011;61032;50.782;6.818;2022-12-10T01:21:41;22.88;;;12.93;;
72891;SDS011;61032;50.782;6.818;2022-12-10T01:22:42;24.13;;;12.15;;
72891;SDS011;61032;50.782;6.818;2022-12-10T01:23:43;22.13;;;11.60;;
72891;SDS011;61032;50.782;6.818;2022-12-10T01:25:45;24.42;;;12.55;;
72891;SDS011;61032;50.782;6.818;2022-12-10T01:26:46;22.10;;;11.57;;
72891;SDS011;61032;50.782;6.818;2022-12-10T01:27:46;23.02;;;12.55;;
72891;SDS011;61032;50.782;6.818;2022-12-10T01:28:47;24.33;;;11.90;;
72891;SDS011;61032;50.782;6.818;2022-12-10T01:29:48;22.90;;;12.10;;
72891;SDS011;61032;50.782;6.818;2022-12-10T01:30:48;24.70;;;12.23;;
72891;SDS011;61032;50.782;6.818;2022-12-10T01:31:52;24.50;;;12.60;;
72891;SDS011;61032;50.782;6.818;2022-12-10T01:32:53;23.10;;;11.50;;
72891;SDS011;61032;50.782;6.818;2022-12-10T01:33:53;30.33;;;12.02;;
72891;SDS011;61032;50.782;6.818;2022-12-10T01:34:55;23.42;;;12.55;;
72891;SDS011;61032;50.782;6.818;2022-12-10T01:35:56;25.95;;;12.52;;
72891;SDS011;61032;50.782;6.818;2022-12-10T01:37:00;24.05;;;11.93;;
72891;SDS011;61032;50.782;6.818;2022-12-10T01:38:01;26.73;;;11.95;;
72891;SDS011;61032;50.782;6.818;2022-12-10T01:39:02;22.45;;;12.27;;
72891;SDS011;61032;50.782;6.818;2022-12-10T01:40:04;22.98;;;12.10;;
72891;SDS011;61032;50.782;6.818;2022-12-10T01:41:05;21.27;;;11.57;;
72891;SDS011;61032;50.782;6.818;2022-12-10T01:42:09;21.30;;;12.02;;
72891;SDS011;61032;50.782;6.818;2022-12-10T01:43:12;20.50;;;11.73;;
72891;SDS011;61032;50.782;6.818;2022-12-10T01:45:14;22.67;;;11.60;;
72891;SDS011;61032;50.782;6.818;2022-12-10T01:46:14;28.58;;;11.60;;
72891;SDS011;61032;50.782;6.818;2022-12-10T01:47:15;20.98;;;11.93;;
72891;SDS011;61032;50.782;6.818;2022-12-10T01:48:15;20.73;;;11.57;;
72891;SDS011;61032;50.782;6.818;2022-12-10T01:49:17;20.70;;;12.25;;
72891;SDS011;61032;50.782;6.818;2022-12-10T01:50:19;20.88;;;11.10;;
72891;SDS011;61032;50.782;6.818;2022-12-10T01:51:20;19.23;;;12.07;;
72891;SDS011;61032;50.782;6.818;2022-12-10T01:52:21;25.63;;;12.70;;
72891;SDS011;61032;50.782;6.818;2022-12-10T01:53:22;23.70;;;12.15;;
72891;SDS011;61032;50.782;6.818;2022-12-10T01:54:42;27.60;;;11.73;;
72891;SDS011;61032;50.782;6.818;2022-12-10T01:56:49;26.48;;;11.55;;
72891;SDS011;61032;50.782;6.818;2022-12-10T01:57:54;24.40;;;13.00;;
72891;SDS011;61032;50.782;6.818;2022-12-10T01:58:55;20.35;;;11.38;;
72891;SDS011;61032;50.782;6.818;2022-12-10T02:00:00;22.05;;;10.68;;
72891;SDS011;61032;50.782;6.818;2022-12-10T02:03:33;27.02;;;12.77;;
72891;SDS011;61032;50.782;6.818;2022-12-10T02:04:50;25.38;;;13.05;;
72891;SDS011;61032;50.782;6.818;2022-12-10T02:06:02;22.98;;;11.77;;
72891;SDS011;61032;50.782;6.818;2022-12-10T02:07:25;25.95;;;11.98;;
72891;SDS011;61032;50.782;6.818;2022-12-10T02:08:39;24.83;;;12.80;;
72891;SDS011;61032;50.782;6.818;2022-12-10T02:10:34;22.15;;;12.35;;
72891;SDS011;61032;50.782;6.818;2022-12-10T02:11:28;24.83;;;11.85;;
72891;SDS011;61032;50.782;6.818;2022-12-10T02:12:34;22.02;;;12.45;;
72891;SDS011;61032;50.782;6.818;2022-12-10T02:13:45;26.60;;;13.25;;
72891;SDS011;61032;50.782;6.818;2022-12-10T02:16:37;19.80;;;11.23;;
72891;SDS011;61032;50.782;6.818;2022-12-10T02:17:42;24.40;;;12.13;;
72891;SDS011;61032;50.782;6.818;2022-12-10T02:18:54;23.25;;;12.45;;
72891;SDS011;61032;50.782;6.818;2022-12-10T02:21:22;25.45;;;12.07;;
72891;SDS011;61032;50.782;6.818;2022-12-10T02:22:31;24.08;;;12.10;;
72891;SDS011;61032;50.782;6.818;2022-12-10T02:23:38;29.27;;;12.15;;
72891;SDS011;61032;50.782;6.818;2022-12-10T02:24:41;21.70;;;11.70;;
72891;SDS011;61032;50.782;6.818;2022-12-10T02:25:52;23.63;;;12.15;;
72891;SDS011;61032;50.782;6.818;2022-12-10T02:27:15;23.75;;;12.00;;
72891;SDS011;61032;50.782;6.818;2022-12-10T02:28:25;20.80;;;11.27;;
72891;SDS011;61032;50.782;6.818;2022-12-10T02:29:39;24.08;;;11.63;;
72891;SDS011;61032;50.782;6.818;2022-12-10T02:30:43;26.02;;;12.27;;
72891;SDS011;61032;50.782;6.818;2022-12-10T02:31:48;23.08;;;12.07;;
72891;SDS011;61032;50.782;6.818;2022-12-10T02:32:52;22.05;;;11.52;;
72891;SDS011;61032;50.782;6.818;2022-12-10T02:33:55;23.48;;;12.07;;
72891;SDS011;61032;50.782;6.818;2022-12-10T02:35:00;27.95;;;12.88;;
72891;SDS011;61032;50.782;6.818;2022-12-10T02:36:05;28.30;;;12.82;;
72891;SDS011;61032;50.782;6.818;2022-12-10T02:37:12;24.65;;;12.70;;
72891;SDS011;61032;50.782;6.818;2022-12-10T02:38:20;24.23;;;12.75;;
72891;SDS011;61032;50.782;6.818;2022-12-10T02:39:29;23.83;;;13.63;;
72891;SDS011;61032;50.782;6.818;2022-12-10T02:40:34;27.25;;;12.60;;
72891;SDS011;61032;50.782;6.818;2022-12-10T02:41:40;27.73;;;12.93;;
72891;SDS011;61032;50.782;6.818;2022-12-10T02:42:44;23.90;;;13.00;;
72891;SDS011;61032;50.782;6.818;2022-12-10T02:43:49;23.70;;;12.57;;
72891;SDS011;61032;50.782;6.818;2022-12-10T02:44:53;23.33;;;12.50;;
72891;SDS011;61032;50.782;6.818;2022-12-10T02:45:56;26.40;;;14.07;;
72891;SDS011;61032;50.782;6.818;2022-12-10T02:46:58;25.45;;;13.68;;
72891;SDS011;61032;50.782;6.818;2022-12-10T02:48:01;24.75;;;12.82;;
72891;SDS011;61032;50.782;6.818;2022-12-10T02:49:03;28.88;;;14.75;;
72891;SDS011;61032;50.782;6.818;2022-12-10T02:50:07;25.48;;;12.93;;
72891;SDS011;61032;50.782;6.818;2022-12-10T02:51:10;29.30;;;13.90;;
72891;SDS011;61032;50.782;6.818;2022-12-10T02:52:15;21.83;;;12.40;;
72891;SDS011;61032;50.782;6.818;2022-12-10T02:53:19;26.25;;;12.70;;
72891;SDS011;61032;50.782;6.818;2022-12-10T02:55:49;23.23;;;12.00;;
72891;SDS011;61032;50.782;6.818;2022-12-10T02:56:58;21.67;;;11.90;;
72891;SDS011;61032;50.782;6.818;2022-12-10T03:00:20;27.35;;;13.52;;
72891;SDS011;61032;50.782;6.818;2022-12-10T03:04:25;26.45;;;12.75;;
72891;SDS011;61032;50.782;6.818;2022-12-10T03:05:40;21.73;;;11.50;;
72891;SDS011;61032;50.782;6.818;2022-12-10T03:07:02;26.17;;;13.02;;
72891;SDS011;61032;50.782;6.818;2022-12-10T03:08:11;26.55;;;13.13;;
72891;SDS011;61032;50.782;6.818;2022-12-10T03:09:16;26.33;;;13.65;;
72891;SDS011;61032;50.782;6.818;2022-12-10T03:12:06;27.58;;;13.30;;
72891;SDS011;61032;50.782;6.818;2022-12-10T03:13:21;25.05;;;13.20;;
72891;SDS011;61032;50.782;6.818;2022-12-10T03:14:30;22.30;;;11.57;;
72891;SDS011;61032;50.782;6.818;2022-12-10T03:15:33;21.80;;;12.73;;
72891;SDS011;61032;50.782;6.818;2022-12-10T03:16:37;24.60;;;13.05;;
72891;SDS011;61032;50.782;6.818;2022-12-10T03:17:41;24.33;;;12.98;;
72891;SDS011;61032;50.782;6.818;2022-12-10T03:18:43;25.55;;;12.68;;
72891;SDS011;61032;50.782;6.818;2022-12-10T03:19:47;27.92;;;14.45;;
72891;SDS011;61032;50.782;6.818;2022-12-10T03:20:50;29.02;;;15.30;;
72891;SDS011;61032;50.782;6.818;2022-12-10T03:21:53;22.92;;;12.88;;
72891;SDS011;61032;50.782;6.818;2022-12-10T03:22:56;26.17;;;13.55;;
72891;SDS011;61032;50.782;6.818;2022-12-10T03:23:57;23.13;;;11.98;;
72891;SDS011;61032;50.782;6.818;2022-12-10T03:24:57;23.33;;;12.20;;
72891;SDS011;61032;50.782;6.818;2022-12-10T03:25:59;24.10;;;12.65;;
72891;SDS011;61032;50.782;6.818;2022-12-10T03:28:03;24.42;;;12.90;;
72891;SDS011;61032;50.782;6.818;2022-12-10T03:29:06;22.83;;;13.38;;
72891;SDS011;61032;50.782;6.818;2022-12-10T03:30:09;23.95;;;12.23;;
72891;SDS011;61032;50.782;6.818;2022-12-10T03:31:09;29.35;;;13.93;;
72891;SDS011;61032;50.782;6.818;2022-12-10T03:32:12;25.10;;;12.50;;
72891;SDS011;61032;50.782;6.818;2022-12-10T03:33:14;25.35;;;13.23;;
72891;SDS011;61032;50.782;6.818;2022-12-10T03:34:15;22.52;;;12.50;;
72891;SDS011;61032;50.782;6.818;2022-12-10T03:35:15;26.65;;;13.35;;
72891;SDS011;61032;50.782;6.818;2022-12-10T03:36:18;21.95;;;12.95;;
72891;SDS011;61032;50.782;6.818;2022-12-10T03:37:20;23.55;;;12.32;;
72891;SDS011;61032;50.782;6.818;2022-12-10T03:38:22;27.98;;;12.80;;
72891;SDS011;61032;50.782;6.818;2022-12-10T03:39:23;26.60;;;13.98;;
72891;SDS011;61032;50.782;6.818;2022-12-10T03:40:24;23.60;;;12.45;;
72891;SDS011;61032;50.782;6.818;2022-12-10T03:41:25;27.63;;;13.30;;
72891;SDS011;61032;50.782;6.818;2022-12-10T03:42:25;27.70;;;13.43;;
72891;SDS011;61032;50.782;6.818;2022-12-10T03:43:26;24.73;;;12.50;;
72891;SDS011;61032;50.782;6.818;2022-12-10T03:44:30;24.17;;;12.40;;
72891;SDS011;61032;50.782;6.818;2022-12-10T03:45:31;23.45;;;13.10;;
72891;SDS011;61032;50.782;6.818;2022-12-10T03:46:32;27.58;;;12.90;;
72891;SDS011;61032;50.782;6.818;2022-12-10T03:47:32;27.00;;;13.15;;
72891;SDS011;61032;50.782;6.818;2022-12-10T03:48:33;25.63;;;13.70;;
72891;SDS011;61032;50.782;6.818;2022-12-10T03:49:33;26.60;;;13.07;;
72891;SDS011;61032;50.782;6.818;2022-12-10T03:50:34;28.40;;;13.90;;
72891;SDS011;61032;50.782;6.818;2022-12-10T03:51:34;28.08;;;14.68;;
72891;SDS011;61032;50.782;6.818;2022-12-10T03:52:35;28.13;;;13.68;;
72891;SDS011;61032;50.782;6.818;2022-12-10T03:53:35;28.80;;;13.75;;
72891;SDS011;61032;50.782;6.818;2022-12-10T03:54:36;27.70;;;15.35;;
72891;SDS011;61032;50.782;6.818;2022-12-10T03:55:36;27.92;;;14.13;;
72891;SDS011;61032;50.782;6.818;2022-12-10T03:56:37;29.35;;;14.52;;
72891;SDS011;61032;50.782;6.818;2022-12-10T03:57:38;27.25;;;14.15;;
72891;SDS011;61032;50.782;6.818;2022-12-10T03:58:38;31.27;;;13.73;;
72891;SDS011;61032;50.782;6.818;2022-12-10T03:59:38;28.25;;;13.43;;
72891;SDS011;61032;50.782;6.818;2022-12-10T04:00:38;25.50;;;13.57;;
72891;SDS011;61032;50.782;6.818;2022-12-10T04:01:39;30.02;;;13.65;;
72891;SDS011;61032;50.782;6.818;2022-12-10T04:02:40;27.38;;;12.80;;
72891;SDS011;61032;50.782;6.818;2022-12-10T04:03:41;26.42;;;14.00;;
72891;SDS011;61032;50.782;6.818;2022-12-10T04:04:42;24.33;;;13.18;;
72891;SDS011;61032;50.782;6.818;2022-12-10T04:05:42;27.77;;;12.95;;
72891;SDS011;61032;50.782;6.818;2022-12-10T04:06:42;30.65;;;14.75;;
72891;SDS011;61032;50.782;6.818;2022-12-10T04:07:43;26.35;;;13.50;;
72891;SDS011;61032;50.782;6.818;2022-12-10T04:08:44;26.38;;;13.15;;
72891;SDS011;61032;50.782;6.818;2022-12-10T04:09:44;26.42;;;13.45;;
72891;SDS011;61032;50.782;6.818;2022-12-10T04:10:45;24.63;;;13.05;;
72891;SDS011;61032;50.782;6.818;2022-12-10T04:11:45;24.98;;;12.98;;
72891;SDS011;61032;50.782;6.818;2022-12-10T04:12:45;28.08;;;14.68;;
72891;SDS011;61032;50.782;6.818;2022-12-10T04:14:07;28.45;;;13.13;;
72891;SDS011;61032;50.782;6.818;2022-12-10T04:15:27;28.42;;;13.75;;
72891;SDS011;61032;50.782;6.818;2022-12-10T04:16:46;27.15;;;14.73;;
72891;SDS011;61032;50.782;6.818;2022-12-10T04:17:46;24.75;;;14.55;;
72891;SDS011;61032;50.782;6.818;2022-12-10T04:18:47;26.38;;;14.00;;
72891;SDS011;61032;50.782;6.818;2022-12-10T04:19:47;26.50;;;14.18;;
72891;SDS011;61032;50.782;6.818;2022-12-10T04:20:47;29.23;;;14.88;;
72891;SDS011;61032;50.782;6.818;2022-12-10T04:22:07;31.73;;;14.57;;
72891;SDS011;61032;50.782;6.818;2022-12-10T04:23:27;26.95;;;13.68;;
72891;SDS011;61032;50.782;6.818;2022-12-10T04:24:46;25.27;;;12.88;;
72891;SDS011;61032;50.782;6.818;2022-12-10T04:26:06;25.77;;;13.25;;
72891;SDS011;61032;50.782;6.818;2022-12-10T04:27:25;25.80;;;13.25;;
72891;SDS011;61032;50.782;6.818;2022-12-10T04:28:28;27.80;;;14.18;;
72891;SDS011;61032;50.782;6.818;2022-12-10T04:29:29;28.00;;;14.57;;
72891;SDS011;61032;50.782;6.818;2022-12-10T04:30:30;27.88;;;13.93;;
72891;SDS011;61032;50.782;6.818;2022-12-10T04:31:30;28.17;;;15.73;;
72891;SDS011;61032;50.782;6.818;2022-12-10T04:32:30;29.48;;;14.82;;
72891;SDS011;61032;50.782;6.818;2022-12-10T04:33:31;30.13;;;15.32;;
72891;SDS011;61032;50.782;6.818;2022-12-10T04:34:31;25.73;;;13.73;;
72891;SDS011;61032;50.782;6.818;2022-12-10T04:35:32;29.90;;;14.38;;
72891;SDS011;61032;50.782;6.818;2022-12-10T04:36:32;29.17;;;14.88;;
72891;SDS011;61032;50.782;6.818;2022-12-10T04:37:32;24.52;;;13.80;;
72891;SDS011;61032;50.782;6.818;2022-12-10T04:38:33;25.38;;;12.95;;
72891;SDS011;61032;50.782;6.818;2022-12-10T04:39:33;30.45;;;14.23;;
72891;SDS011;61032;50.782;6.818;2022-12-10T04:40:34;27.42;;;14.05;;
72891;SDS011;61032;50.782;6.818;2022-12-10T04:41:34;30.33;;;13.95;;
72891;SDS011;61032;50.782;6.818;2022-12-10T04:42:34;32.70;;;14.98;;
72891;SDS011;61032;50.782;6.818;2022-12-10T04:43:35;26.42;;;14.27;;
72891;SDS011;61032;50.782;6.818;2022-12-10T04:44:35;28.13;;;14.75;;
72891;SDS011;61032;50.782;6.818;2022-12-10T04:45:36;24.95;;;13.85;;
72891;SDS011;61032;50.782;6.818;2022-12-10T04:46:36;28.55;;;13.70;;
72891;SDS011;61032;50.782;6.818;2022-12-10T04:47:37;30.05;;;15.48;;
72891;SDS011;61032;50.782;6.818;2022-12-10T04:48:37;28.15;;;15.38;;
72891;SDS011;61032;50.782;6.818;2022-12-10T04:49:37;28.23;;;14.55;;
72891;SDS011;61032;50.782;6.818;2022-12-10T04:50:38;27.58;;;13.40;;
72891;SDS011;61032;50.782;6.818;2022-12-10T04:51:39;29.02;;;14.63;;
72891;SDS011;61032;50.782;6.818;2022-12-10T04:52:40;30.42;;;14.27;;
72891;SDS011;61032;50.782;6.818;2022-12-10T04:53:40;29.35;;;14.95;;
72891;SDS011;61032;50.782;6.818;2022-12-10T04:54:41;28.65;;;14.85;;
72891;SDS011;61032;50.782;6.818;2022-12-10T04:55:42;25.23;;;13.18;;
72891;SDS011;61032;50.782;6.818;2022-12-10T04:56:42;28.92;;;14.30;;
72891;SDS011;61032;50.782;6.818;2022-12-10T04:57:43;24.85;;;13.55;;
72891;SDS011;61032;50.782;6.818;2022-12-10T04:58:43;29.30;;;14.18;;
72891;SDS011;61032;50.782;6.818;2022-12-10T04:59:43;28.08;;;14.40;;
72891;SDS011;61032;50.782;6.818;2022-12-10T05:00:44;31.48;;;15.23;;
72891;SDS011;61032;50.782;6.818;2022-12-10T05:01:44;30.77;;;15.40;;
72891;SDS011;61032;50.782;6.818;2022-12-10T05:02:47;29.80;;;15.07;;
72891;SDS011;61032;50.782;6.818;2022-12-10T05:03:48;34.38;;;15.15;;
72891;SDS011;61032;50.782;6.818;2022-12-10T05:04:49;27.83;;;14.05;;
72891;SDS011;61032;50.782;6.818;2022-12-10T05:05:49;31.10;;;15.00;;
72891;SDS011;61032;50.782;6.818;2022-12-10T05:06:50;29.08;;;14.88;;
72891;SDS011;61032;50.782;6.818;2022-12-10T05:07:51;30.75;;;14.52;;
72891;SDS011;61032;50.782;6.818;2022-12-10T05:08:51;30.40;;;15.68;;
72891;SDS011;61032;50.782;6.818;2022-12-10T05:09:52;28.25;;;14.38;;
72891;SDS011;61032;50.782;6.818;2022-12-10T05:10:52;32.05;;;15.07;;
72891;SDS011;61032;50.782;6.818;2022-12-10T05:11:52;32.42;;;14.50;;
72891;SDS011;61032;50.782;6.818;2022-12-10T05:12:53;33.63;;;15.55;;
72891;SDS011;61032;50.782;6.818;2022-12-10T05:13:53;30.08;;;13.50;;
72891;SDS011;61032;50.782;6.818;2022-12-10T05:14:54;34.78;;;18.08;;
72891;SDS011;61032;50.782;6.818;2022-12-10T05:15:54;34.08;;;16.08;;
72891;SDS011;61032;50.782;6.818;2022-12-10T05:16:55;34.63;;;18.08;;
72891;SDS011;61032;50.782;6.818;2022-12-10T05:17:55;34.63;;;16.88;;
72891;SDS011;61032;50.782;6.818;2022-12-10T05:18:56;32.58;;;16.85;;
72891;SDS011;61032;50.782;6.818;2022-12-10T05:19:56;34.65;;;16.45;;
72891;SDS011;61032;50.782;6.818;2022-12-10T05:21:00;38.95;;;19.50;;
72891;SDS011;61032;50.782;6.818;2022-12-10T05:22:02;37.63;;;16.15;;
72891;SDS011;61032;50.782;6.818;2022-12-10T05:23:21;29.95;;;14.75;;
72891;SDS011;61032;50.782;6.818;2022-12-10T05:24:30;33.05;;;16.15;;
72891;SDS011;61032;50.782;6.818;2022-12-10T05:25:30;32.92;;;17.13;;
72891;SDS011;61032;50.782;6.818;2022-12-10T05:26:31;35.40;;;18.05;;
72891;SDS011;61032;50.782;6.818;2022-12-10T05:27:32;35.28;;;16.70;;
72891;SDS011;61032;50.782;6.818;2022-12-10T05:28:34;36.67;;;17.20;;
72891;SDS011;61032;50.782;6.818;2022-12-10T05:29:36;37.00;;;18.52;;
72891;SDS011;61032;50.782;6.818;2022-12-10T05:30:36;43.17;;;20.10;;
72891;SDS011;61032;50.782;6.818;2022-12-10T05:31:37;34.47;;;17.15;;
72891;SDS011;61032;50.782;6.818;2022-12-10T05:32:37;37.05;;;17.70;;
72891;SDS011;61032;50.782;6.818;2022-12-10T05:33:37;35.75;;;17.33;;
72891;SDS011;61032;50.782;6.818;2022-12-10T05:34:38;36.63;;;17.17;;
72891;SDS011;61032;50.782;6.818;2022-12-10T05:35:38;35.38;;;16.17;;
72891;SDS011;61032;50.782;6.818;2022-12-10T05:36:38;30.48;;;15.32;;
72891;SDS011;61032;50.782;6.818;2022-12-10T05:37:38;34.50;;;15.43;;
72891;SDS011;61032;50.782;6.818;2022-12-10T05:38:39;36.53;;;17.38;;
72891;SDS011;61032;50.782;6.818;2022-12-10T05:39:40;40.13;;;17.50;;
72891;SDS011;61032;50.782;6.818;2022-12-10T05:40:40;41.03;;;17.55;;
72891;SDS011;61032;50.782;6.818;2022-12-10T05:41:41;37.53;;;18.85;;
72891;SDS011;61032;50.782;6.818;2022-12-10T05:42:43;35.22;;;16.58;;
72891;SDS011;61032;50.782;6.818;2022-12-10T05:43:44;36.60;;;17.35;;
72891;SDS011;61032;50.782;6.818;2022-12-10T05:44:45;33.45;;;17.13;;
72891;SDS011;61032;50.782;6.818;2022-12-10T05:45:45;39.30;;;17.55;;
72891;SDS011;61032;50.782;6.818;2022-12-10T05:46:46;32.95;;;15.18;;
72891;SDS011;61032;50.782;6.818;2022-12-10T05:47:46;39.83;;;18.55;;
72891;SDS011;61032;50.782;6.818;2022-12-10T05:48:46;36.70;;;16.63;;
72891;SDS011;61032;50.782;6.818;2022-12-10T05:49:47;38.65;;;17.75;;
72891;SDS011;61032;50.782;6.818;2022-12-10T05:50:47;42.90;;;19.00;;
72891;SDS011;61032;50.782;6.818;2022-12-10T05:51:47;42.83;;;17.52;;
72891;SDS011;61032;50.782;6.818;2022-12-10T05:52:49;37.83;;;17.13;;
72891;SDS011;61032;50.782;6.818;2022-12-10T05:53:51;38.13;;;17.10;;
72891;SDS011;61032;50.782;6.818;2022-12-10T05:54:52;39.70;;;17.10;;
72891;SDS011;61032;50.782;6.818;2022-12-10T05:55:58;31.55;;;15.90;;
72891;SDS011;61032;50.782;6.818;2022-12-10T05:58:00;35.55;;;15.98;;
72891;SDS011;61032;50.782;6.818;2022-12-10T05:59:01;37.65;;;17.55;;
72891;SDS011;61032;50.782;6.818;2022-12-10T06:00:03;32.17;;;16.27;;
72891;SDS011;61032;50.782;6.818;2022-12-10T06:01:06;32.50;;;16.00;;
72891;SDS011;61032;50.782;6.818;2022-12-10T06:02:11;37.88;;;15.75;;
72891;SDS011;61032;50.782;6.818;2022-12-10T06:03:11;40.67;;;16.75;;
72891;SDS011;61032;50.782;6.818;2022-12-10T06:04:11;39.80;;;15.65;;
72891;SDS011;61032;50.782;6.818;2022-12-10T06:05:12;41.00;;;17.27;;
72891;SDS011;61032;50.782;6.818;2022-12-10T06:06:12;35.78;;;16.50;;
72891;SDS011;61032;50.782;6.818;2022-12-10T06:07:13;36.97;;;16.85;;
72891;SDS011;61032;50.782;6.818;2022-12-10T06:08:13;37.67;;;17.40;;
72891;SDS011;61032;50.782;6.818;2022-12-10T06:09:14;35.75;;;16.60;;
72891;SDS011;61032;50.782;6.818;2022-12-10T06:10:14;37.75;;;16.63;;
72891;SDS011;61032;50.782;6.818;2022-12-10T06:11:14;39.05;;;18.00;;
72891;SDS011;61032;50.782;6.818;2022-12-10T06:12:15;34.30;;;16.45;;
72891;SDS011;61032;50.782;6.818;2022-12-10T06:13:15;41.55;;;17.13;;
72891;SDS011;61032;50.782;6.818;2022-12-10T06:14:16;41.30;;;17.92;;
72891;SDS011;61032;50.782;6.818;2022-12-10T06:15:16;40.47;;;19.23;;
72891;SDS011;61032;50.782;6.818;2022-12-10T06:16:25;41.95;;;17.83;;
72891;SDS011;61032;50.782;6.818;2022-12-10T06:17:26;39.95;;;17.17;;
72891;SDS011;61032;50.782;6.818;2022-12-10T06:18:26;44.33;;;19.35;;
72891;SDS011;61032;50.782;6.818;2022-12-10T06:19:27;39.40;;;18.58;;
72891;SDS011;61032;50.782;6.818;2022-12-10T06:20:27;45.35;;;18.75;;
72891;SDS011;61032;50.782;6.818;2022-12-10T06:21:27;41.50;;;16.33;;
72891;SDS011;61032;50.782;6.818;2022-12-10T06:22:28;40.60;;;17.35;;
72891;SDS011;61032;50.782;6.818;2022-12-10T06:23:28;38.83;;;16.88;;
72891;SDS011;61032;50.782;6.818;2022-12-10T06:24:28;46.58;;;18.15;;
72891;SDS011;61032;50.782;6.818;2022-12-10T06:25:29;41.10;;;18.27;;